sensor_id;sensor_type;location;lat;lon;timestamp;pressure;altitude;pressure_sealevel;temperature;humidity
54144;BME280;40050;47.324;18.792;2023-02-19T00:01:38;1004.78;;;13.72;59.05
54144;BME280;40050;47.324;18.792;2023-02-19T00:03:46;1004.81;;;13.73;59.00
54144;BME280;40050;47.324;18.792;2023-02-19T00:05:48;1004.78;;;13.69;58.79
54144;BME280;40050;47.324;18.792;2023-02-19T00:07:51;1004.85;;;13.72;58.68
54144;BME280;40050;47.324;18.792;2023-02-19T00:09:53;1004.84;;;13.73;58.44
54144;BME280;40050;47.324;18.792;2023-02-19T00:11:58;1004.82;;;13.72;58.31
54144;BME280;40050;47.324;18.792;2023-02-19T00:14:01;1004.86;;;13.71;58.28
54144;BME280;40050;47.324;18.792;2023-02-19T00:16:07;1004.84;;;13.74;58.10
54144;BME280;40050;47.324;18.792;2023-02-19T00:18:09;1004.89;;;13.75;58.16
54144;BME280;40050;47.324;18.792;2023-02-19T00:20:12;1004.74;;;13.71;58.01
54144;BME280;40050;47.324;18.792;2023-02-19T00:22:14;1004.75;;;13.68;57.90
54144;BME280;40050;47.324;18.792;2023-02-19T00:24:16;1004.81;;;13.68;57.91
54144;BME280;40050;47.324;18.792;2023-02-19T00:26:19;1004.73;;;13.69;58.04
54144;BME280;40050;47.324;18.792;2023-02-19T00:28:22;1004.73;;;13.69;57.90
54144;BME280;40050;47.324;18.792;2023-02-19T00:30:24;1004.91;;;13.76;57.86
54144;BME280;40050;47.324;18.792;2023-02-19T00:32:26;1004.87;;;13.75;57.81
54144;BME280;40050;47.324;18.792;2023-02-19T00:34:29;1004.89;;;13.75;57.71
54144;BME280;40050;47.324;18.792;2023-02-19T00:36:32;1004.71;;;13.63;57.68
54144;BME280;40050;47.324;18.792;2023-02-19T00:38:35;1004.91;;;13.71;57.71
54144;BME280;40050;47.324;18.792;2023-02-19T00:40:38;1004.90;;;13.67;57.79
54144;BME280;40050;47.324;18.792;2023-02-19T00:42:40;1004.95;;;13.64;57.68
54144;BME280;40050;47.324;18.792;2023-02-19T00:44:42;1005.05;;;13.61;57.90
54144;BME280;40050;47.324;18.792;2023-02-19T00:46:45;1005.03;;;13.60;57.95
54144;BME280;40050;47.324;18.792;2023-02-19T00:48:48;1005.03;;;13.60;57.98
54144;BME280;40050;47.324;18.792;2023-02-19T00:50:51;1005.04;;;13.58;58.08
54144;BME280;40050;47.324;18.792;2023-02-19T00:52:53;1005.11;;;13.55;58.13
54144;BME280;40050;47.324;18.792;2023-02-19T00:54:55;1004.92;;;13.47;58.18
54144;BME280;40050;47.324;18.792;2023-02-19T00:56:58;1005.05;;;13.54;58.24
54144;BME280;40050;47.324;18.792;2023-02-19T00:59:00;1005.07;;;13.56;58.30
54144;BME280;40050;47.324;18.792;2023-02-19T01:01:03;1005.02;;;13.50;58.42
54144;BME280;40050;47.324;18.792;2023-02-19T01:03:06;1004.96;;;13.55;58.40
54144;BME280;40050;47.324;18.792;2023-02-19T01:05:08;1004.98;;;13.57;58.49
54144;BME280;40050;47.324;18.792;2023-02-19T01:07:10;1004.95;;;13.53;58.68
54144;BME280;40050;47.324;18.792;2023-02-19T01:09:13;1004.96;;;13.55;58.65
54144;BME280;40050;47.324;18.792;2023-02-19T01:11:15;1005.01;;;13.55;58.66
54144;BME280;40050;47.324;18.792;2023-02-19T01:13:18;1004.95;;;13.56;58.66
54144;BME280;40050;47.324;18.792;2023-02-19T01:15:21;1004.95;;;13.56;58.59
54144;BME280;40050;47.324;18.792;2023-02-19T01:17:23;1004.84;;;13.53;58.72
54144;BME280;40050;47.324;18.792;2023-02-19T01:19:25;1004.90;;;13.52;58.87
54144;BME280;40050;47.324;18.792;2023-02-19T01:21:28;1004.59;;;13.33;58.86
54144;BME280;40050;47.324;18.792;2023-02-19T01:23:31;1004.82;;;13.54;58.85
54144;BME280;40050;47.324;18.792;2023-02-19T01:25:34;1004.88;;;13.51;58.87
54144;BME280;40050;47.324;18.792;2023-02-19T01:27:36;1004.85;;;13.51;59.06
54144;BME280;40050;47.324;18.792;2023-02-19T01:29:38;1004.82;;;13.51;59.10
54144;BME280;40050;47.324;18.792;2023-02-19T01:31:41;1004.85;;;13.50;59.38
54144;BME280;40050;47.324;18.792;2023-02-19T01:33:47;1004.86;;;13.53;59.30
54144;BME280;40050;47.324;18.792;2023-02-19T01:35:50;1004.81;;;13.48;59.55
54144;BME280;40050;47.324;18.792;2023-02-19T01:37:52;1004.81;;;13.48;59.59
54144;BME280;40050;47.324;18.792;2023-02-19T01:39:54;1004.86;;;13.46;59.79
54144;BME280;40050;47.324;18.792;2023-02-19T01:41:57;1004.87;;;13.48;60.03
54144;BME280;40050;47.324;18.792;2023-02-19T01:46:19;1004.77;;;13.43;60.17
54144;BME280;40050;47.324;18.792;2023-02-19T01:48:34;1004.86;;;13.49;60.33
54144;BME280;40050;47.324;18.792;2023-02-19T01:50:43;1004.62;;;13.36;60.47
54144;BME280;40050;47.324;18.792;2023-02-19T01:52:46;1004.87;;;13.49;60.61
54144;BME280;40050;47.324;18.792;2023-02-19T01:54:50;1004.89;;;13.46;60.76
54144;BME280;40050;47.324;18.792;2023-02-19T01:56:53;1004.85;;;13.46;60.86
54144;BME280;40050;47.324;18.792;2023-02-19T01:58:56;1004.98;;;13.51;61.18
54144;BME280;40050;47.324;18.792;2023-02-19T02:01:00;1004.93;;;13.47;61.15
54144;BME280;40050;47.324;18.792;2023-02-19T02:03:04;1004.96;;;13.47;61.55
54144;BME280;40050;47.324;18.792;2023-02-19T02:05:07;1004.87;;;13.42;61.99
54144;BME280;40050;47.324;18.792;2023-02-19T02:07:12;1004.80;;;13.46;61.85
54144;BME280;40050;47.324;18.792;2023-02-19T02:09:15;1004.76;;;13.44;61.99
54144;BME280;40050;47.324;18.792;2023-02-19T02:11:18;1004.81;;;13.44;62.26
54144;BME280;40050;47.324;18.792;2023-02-19T02:13:21;1004.71;;;13.37;62.02
54144;BME280;40050;47.324;18.792;2023-02-19T02:15:23;1004.80;;;13.40;61.88
54144;BME280;40050;47.324;18.792;2023-02-19T02:17:30;1004.87;;;13.38;61.89
54144;BME280;40050;47.324;18.792;2023-02-19T02:19:51;1004.87;;;13.33;61.75
54144;BME280;40050;47.324;18.792;2023-02-19T02:22:06;1004.94;;;13.39;61.64
54144;BME280;40050;47.324;18.792;2023-02-19T02:24:18;1004.89;;;13.39;61.55
54144;BME280;40050;47.324;18.792;2023-02-19T02:26:29;1004.94;;;13.36;61.33
54144;BME280;40050;47.324;18.792;2023-02-19T02:31:12;1004.78;;;13.19;60.82
54144;BME280;40050;47.324;18.792;2023-02-19T02:33:24;1004.97;;;13.30;60.59
54144;BME280;40050;47.324;18.792;2023-02-19T02:35:34;1004.93;;;13.27;60.72
54144;BME280;40050;47.324;18.792;2023-02-19T02:37:38;1004.71;;;13.02;60.73
54144;BME280;40050;47.324;18.792;2023-02-19T02:39:43;1005.00;;;13.24;60.65
54144;BME280;40050;47.324;18.792;2023-02-19T02:41:50;1004.89;;;13.21;60.38
54144;BME280;40050;47.324;18.792;2023-02-19T02:43:55;1004.94;;;13.21;60.47
54144;BME280;40050;47.324;18.792;2023-02-19T02:45:58;1004.85;;;13.19;60.44
54144;BME280;40050;47.324;18.792;2023-02-19T02:48:19;1004.88;;;13.23;60.10
54144;BME280;40050;47.324;18.792;2023-02-19T02:50:28;1005.01;;;13.18;60.14
54144;BME280;40050;47.324;18.792;2023-02-19T02:52:35;1004.94;;;13.13;60.38
54144;BME280;40050;47.324;18.792;2023-02-19T02:54:39;1005.01;;;13.12;60.47
54144;BME280;40050;47.324;18.792;2023-02-19T02:56:42;1004.92;;;13.05;60.61
54144;BME280;40050;47.324;18.792;2023-02-19T02:58:46;1004.99;;;13.08;60.47
54144;BME280;40050;47.324;18.792;2023-02-19T03:00:50;1004.99;;;13.10;60.35
54144;BME280;40050;47.324;18.792;2023-02-19T03:02:55;1005.05;;;13.07;60.33
54144;BME280;40050;47.324;18.792;2023-02-19T03:05:02;1004.91;;;13.04;60.26
54144;BME280;40050;47.324;18.792;2023-02-19T03:07:06;1004.96;;;13.02;60.35
54144;BME280;40050;47.324;18.792;2023-02-19T03:09:10;1004.91;;;12.99;60.55
54144;BME280;40050;47.324;18.792;2023-02-19T03:11:16;1004.88;;;12.94;60.59
54144;BME280;40050;47.324;18.792;2023-02-19T03:13:20;1004.79;;;13.00;60.31
54144;BME280;40050;47.324;18.792;2023-02-19T03:15:27;1004.79;;;13.01;60.13
54144;BME280;40050;47.324;18.792;2023-02-19T03:17:42;1004.62;;;12.98;60.02
54144;BME280;40050;47.324;18.792;2023-02-19T03:19:47;1004.71;;;13.00;60.02
54144;BME280;40050;47.324;18.792;2023-02-19T03:21:53;1004.38;;;12.76;60.04
54144;BME280;40050;47.324;18.792;2023-02-19T03:23:57;1004.68;;;12.94;60.07
54144;BME280;40050;47.324;18.792;2023-02-19T03:26:00;1004.64;;;12.97;59.86
54144;BME280;40050;47.324;18.792;2023-02-19T03:28:03;1004.56;;;12.98;59.63
54144;BME280;40050;47.324;18.792;2023-02-19T03:30:24;1004.45;;;12.92;59.64
54144;BME280;40050;47.324;18.792;2023-02-19T03:32:34;1004.45;;;12.90;59.70
54144;BME280;40050;47.324;18.792;2023-02-19T03:34:40;1004.38;;;12.86;59.70
54144;BME280;40050;47.324;18.792;2023-02-19T03:36:45;1004.28;;;12.76;59.84
54144;BME280;40050;47.324;18.792;2023-02-19T03:39:11;1004.29;;;12.73;59.81
54144;BME280;40050;47.324;18.792;2023-02-19T03:41:14;1004.41;;;12.75;59.73
54144;BME280;40050;47.324;18.792;2023-02-19T03:43:20;1004.46;;;12.69;59.73
54144;BME280;40050;47.324;18.792;2023-02-19T03:45:30;1004.46;;;12.65;59.76
54144;BME280;40050;47.324;18.792;2023-02-19T03:47:41;1004.54;;;12.63;59.74
54144;BME280;40050;47.324;18.792;2023-02-19T03:49:48;1004.53;;;12.58;59.81
54144;BME280;40050;47.324;18.792;2023-02-19T03:54:17;1004.51;;;12.50;59.96
54144;BME280;40050;47.324;18.792;2023-02-19T03:56:31;1004.48;;;12.45;60.00
54144;BME280;40050;47.324;18.792;2023-02-19T03:58:59;1004.28;;;12.21;60.13
54144;BME280;40050;47.324;18.792;2023-02-19T04:01:07;1004.49;;;12.28;60.38
54144;BME280;40050;47.324;18.792;2023-02-19T04:03:16;1004.52;;;12.33;60.52
54144;BME280;40050;47.324;18.792;2023-02-19T04:05:23;1004.51;;;12.28;60.71
54144;BME280;40050;47.324;18.792;2023-02-19T04:07:27;1004.54;;;12.24;60.87
54144;BME280;40050;47.324;18.792;2023-02-19T04:09:32;1004.54;;;12.21;61.04
54144;BME280;40050;47.324;18.792;2023-02-19T04:11:37;1004.49;;;12.19;61.03
54144;BME280;40050;47.324;18.792;2023-02-19T04:14:01;1004.47;;;12.11;61.11
54144;BME280;40050;47.324;18.792;2023-02-19T04:15:55;1004.53;;;12.17;61.13
54144;BME280;40050;47.324;18.792;2023-02-19T04:18:03;1004.53;;;12.14;61.09
54144;BME280;40050;47.324;18.792;2023-02-19T04:20:08;1004.60;;;12.16;61.13
54144;BME280;40050;47.324;18.792;2023-02-19T04:22:11;1004.62;;;12.17;61.60
54144;BME280;40050;47.324;18.792;2023-02-19T04:24:18;1004.62;;;12.14;62.03
54144;BME280;40050;47.324;18.792;2023-02-19T04:26:22;1004.70;;;12.09;62.08
54144;BME280;40050;47.324;18.792;2023-02-19T04:28:26;1004.63;;;12.05;61.88
54144;BME280;40050;47.324;18.792;2023-02-19T04:30:29;1004.61;;;12.04;61.74
54144;BME280;40050;47.324;18.792;2023-02-19T04:32:31;1004.61;;;12.01;61.68
54144;BME280;40050;47.324;18.792;2023-02-19T04:34:33;1004.65;;;12.02;61.61
54144;BME280;40050;47.324;18.792;2023-02-19T04:36:36;1004.59;;;12.00;61.58
54144;BME280;40050;47.324;18.792;2023-02-19T04:38:38;1004.45;;;11.93;61.52
54144;BME280;40050;47.324;18.792;2023-02-19T04:40:41;1004.52;;;11.95;61.52
54144;BME280;40050;47.324;18.792;2023-02-19T04:42:43;1004.53;;;11.92;61.51
54144;BME280;40050;47.324;18.792;2023-02-19T04:44:46;1004.48;;;11.88;62.14
54144;BME280;40050;47.324;18.792;2023-02-19T04:46:48;1004.51;;;11.83;62.55
54144;BME280;40050;47.324;18.792;2023-02-19T04:48:50;1004.62;;;11.84;63.23
54144;BME280;40050;47.324;18.792;2023-02-19T04:50:53;1004.64;;;11.81;63.82
54144;BME280;40050;47.324;18.792;2023-02-19T04:52:55;1004.73;;;11.87;63.99
54144;BME280;40050;47.324;18.792;2023-02-19T04:54:58;1004.76;;;11.86;64.78
54144;BME280;40050;47.324;18.792;2023-02-19T04:57:00;1004.68;;;11.81;65.92
54144;BME280;40050;47.324;18.792;2023-02-19T04:59:03;1004.68;;;11.77;67.38
54144;BME280;40050;47.324;18.792;2023-02-19T05:01:05;1004.72;;;11.74;67.98
54144;BME280;40050;47.324;18.792;2023-02-19T05:03:08;1004.77;;;11.78;67.38
54144;BME280;40050;47.324;18.792;2023-02-19T05:05:10;1004.86;;;11.79;68.28
54144;BME280;40050;47.324;18.792;2023-02-19T05:07:12;1004.82;;;11.81;67.93
54144;BME280;40050;47.324;18.792;2023-02-19T05:09:15;1004.77;;;11.86;67.74
54144;BME280;40050;47.324;18.792;2023-02-19T05:11:17;1004.73;;;11.90;67.78
54144;BME280;40050;47.324;18.792;2023-02-19T05:13:19;1004.68;;;11.90;68.22
54144;BME280;40050;47.324;18.792;2023-02-19T05:15:22;1004.66;;;11.92;68.11
54144;BME280;40050;47.324;18.792;2023-02-19T05:17:24;1004.62;;;11.92;68.03
54144;BME280;40050;47.324;18.792;2023-02-19T05:19:26;1004.57;;;11.91;67.93
54144;BME280;40050;47.324;18.792;2023-02-19T05:21:29;1004.49;;;11.94;67.67
54144;BME280;40050;47.324;18.792;2023-02-19T05:23:31;1004.43;;;11.92;67.55
54144;BME280;40050;47.324;18.792;2023-02-19T05:25:34;1004.23;;;11.84;67.40
54144;BME280;40050;47.324;18.792;2023-02-19T05:27:36;1004.40;;;11.89;67.27
54144;BME280;40050;47.324;18.792;2023-02-19T05:29:38;1004.49;;;11.87;67.56
54144;BME280;40050;47.324;18.792;2023-02-19T05:31:41;1004.49;;;11.81;67.60
54144;BME280;40050;47.324;18.792;2023-02-19T05:33:43;1004.53;;;11.77;67.77
54144;BME280;40050;47.324;18.792;2023-02-19T05:35:46;1004.54;;;11.71;67.53
54144;BME280;40050;47.324;18.792;2023-02-19T05:37:49;1004.62;;;11.67;67.67
54144;BME280;40050;47.324;18.792;2023-02-19T05:39:51;1004.62;;;11.62;67.98
54144;BME280;40050;47.324;18.792;2023-02-19T05:41:54;1004.66;;;11.51;68.10
54144;BME280;40050;47.324;18.792;2023-02-19T05:43:56;1004.60;;;11.40;68.09
54144;BME280;40050;47.324;18.792;2023-02-19T05:45:59;1004.57;;;11.24;67.92
54144;BME280;40050;47.324;18.792;2023-02-19T05:48:02;1004.59;;;11.23;67.84
54144;BME280;40050;47.324;18.792;2023-02-19T05:50:05;1004.62;;;11.16;67.71
54144;BME280;40050;47.324;18.792;2023-02-19T05:52:07;1004.63;;;11.11;67.68
54144;BME280;40050;47.324;18.792;2023-02-19T05:54:09;1004.58;;;11.09;67.73
54144;BME280;40050;47.324;18.792;2023-02-19T05:56:37;1004.57;;;11.04;67.76
54144;BME280;40050;47.324;18.792;2023-02-19T05:58:40;1004.58;;;11.02;67.75
54144;BME280;40050;47.324;18.792;2023-02-19T06:00:42;1004.60;;;10.92;67.91
54144;BME280;40050;47.324;18.792;2023-02-19T06:02:45;1004.55;;;10.93;67.68
54144;BME280;40050;47.324;18.792;2023-02-19T06:04:47;1004.59;;;10.95;67.53
54144;BME280;40050;47.324;18.792;2023-02-19T06:06:50;1004.60;;;10.84;67.85
54144;BME280;40050;47.324;18.792;2023-02-19T06:08:52;1004.75;;;10.68;68.53
54144;BME280;40050;47.324;18.792;2023-02-19T06:10:55;1004.72;;;10.61;68.44
54144;BME280;40050;47.324;18.792;2023-02-19T06:12:57;1004.72;;;10.55;68.72
54144;BME280;40050;47.324;18.792;2023-02-19T06:14:59;1004.71;;;10.55;68.48
54144;BME280;40050;47.324;18.792;2023-02-19T06:17:02;1004.69;;;10.31;69.40
54144;BME280;40050;47.324;18.792;2023-02-19T06:19:04;1004.71;;;10.14;69.58
54144;BME280;40050;47.324;18.792;2023-02-19T06:21:07;1004.68;;;10.11;69.48
54144;BME280;40050;47.324;18.792;2023-02-19T06:23:10;1004.63;;;10.12;69.19
54144;BME280;40050;47.324;18.792;2023-02-19T06:25:12;1004.64;;;10.15;68.93
54144;BME280;40050;47.324;18.792;2023-02-19T06:27:14;1004.54;;;10.16;69.03
54144;BME280;40050;47.324;18.792;2023-02-19T06:29:17;1004.16;;;9.93;69.07
54144;BME280;40050;47.324;18.792;2023-02-19T06:31:20;1004.50;;;10.09;69.19
54144;BME280;40050;47.324;18.792;2023-02-19T06:33:22;1004.51;;;10.17;68.96
54144;BME280;40050;47.324;18.792;2023-02-19T06:35:25;1004.49;;;10.05;69.29
54144;BME280;40050;47.324;18.792;2023-02-19T06:37:27;1004.49;;;10.04;69.61
54144;BME280;40050;47.324;18.792;2023-02-19T06:39:29;1004.52;;;10.11;69.44
54144;BME280;40050;47.324;18.792;2023-02-19T06:41:32;1004.53;;;10.09;69.77
54144;BME280;40050;47.324;18.792;2023-02-19T06:43:34;1004.56;;;10.03;70.02
54144;BME280;40050;47.324;18.792;2023-02-19T06:45:37;1004.54;;;9.98;70.18
54144;BME280;40050;47.324;18.792;2023-02-19T06:47:39;1004.39;;;9.78;70.93
54144;BME280;40050;47.324;18.792;2023-02-19T06:49:41;1004.04;;;9.58;70.59
54144;BME280;40050;47.324;18.792;2023-02-19T06:51:44;1004.42;;;9.87;70.44
54144;BME280;40050;47.324;18.792;2023-02-19T06:53:46;1004.46;;;9.95;69.91
54144;BME280;40050;47.324;18.792;2023-02-19T06:55:55;1004.46;;;9.99;69.53
54144;BME280;40050;47.324;18.792;2023-02-19T06:57:58;1004.48;;;9.83;69.77
54144;BME280;40050;47.324;18.792;2023-02-19T07:00:00;1004.52;;;9.87;69.56
54144;BME280;40050;47.324;18.792;2023-02-19T07:02:02;1004.42;;;9.86;69.35
54144;BME280;40050;47.324;18.792;2023-02-19T07:04:05;1004.50;;;9.85;69.42
54144;BME280;40050;47.324;18.792;2023-02-19T07:06:08;1004.55;;;9.92;69.01
54144;BME280;40050;47.324;18.792;2023-02-19T07:08:10;1004.46;;;9.86;69.24
54144;BME280;40050;47.324;18.792;2023-02-19T07:10:12;1004.53;;;9.89;69.23
54144;BME280;40050;47.324;18.792;2023-02-19T07:12:15;1004.49;;;9.93;69.12
54144;BME280;40050;47.324;18.792;2023-02-19T07:14:17;1004.55;;;9.94;69.08
54144;BME280;40050;47.324;18.792;2023-02-19T07:16:20;1004.62;;;9.90;69.30
54144;BME280;40050;47.324;18.792;2023-02-19T07:18:22;1004.62;;;9.89;69.37
54144;BME280;40050;47.324;18.792;2023-02-19T07:20:24;1004.63;;;9.93;69.48
54144;BME280;40050;47.324;18.792;2023-02-19T07:22:27;1004.66;;;9.93;69.43
54144;BME280;40050;47.324;18.792;2023-02-19T07:24:29;1004.63;;;9.90;69.68
54144;BME280;40050;47.324;18.792;2023-02-19T07:26:31;1004.64;;;9.95;69.64
54144;BME280;40050;47.324;18.792;2023-02-19T07:28:34;1004.67;;;9.94;69.63
54144;BME280;40050;47.324;18.792;2023-02-19T07:30:36;1004.57;;;9.91;69.62
54144;BME280;40050;47.324;18.792;2023-02-19T07:32:41;1004.66;;;9.99;69.47
54144;BME280;40050;47.324;18.792;2023-02-19T07:34:44;1004.67;;;9.98;69.46
54144;BME280;40050;47.324;18.792;2023-02-19T07:36:46;1004.59;;;9.92;69.21
54144;BME280;40050;47.324;18.792;2023-02-19T07:38:55;1004.72;;;10.04;69.21
54144;BME280;40050;47.324;18.792;2023-02-19T07:40:58;1004.76;;;10.06;69.39
54144;BME280;40050;47.324;18.792;2023-02-19T07:43:01;1004.71;;;10.03;69.71
54144;BME280;40050;47.324;18.792;2023-02-19T07:45:05;1004.74;;;10.10;69.83
54144;BME280;40050;47.324;18.792;2023-02-19T07:47:07;1004.62;;;10.04;69.76
54144;BME280;40050;47.324;18.792;2023-02-19T07:49:09;1004.72;;;10.16;69.93
54144;BME280;40050;47.324;18.792;2023-02-19T07:51:13;1004.71;;;10.19;70.10
54144;BME280;40050;47.324;18.792;2023-02-19T07:53:16;1004.75;;;10.18;70.33
54144;BME280;40050;47.324;18.792;2023-02-19T07:55:18;1004.80;;;10.24;70.13
54144;BME280;40050;47.324;18.792;2023-02-19T07:57:20;1004.75;;;10.29;70.14
54144;BME280;40050;47.324;18.792;2023-02-19T07:59:23;1004.82;;;10.29;70.54
54144;BME280;40050;47.324;18.792;2023-02-19T08:01:28;1004.85;;;10.30;70.61
54144;BME280;40050;47.324;18.792;2023-02-19T08:03:31;1004.83;;;10.26;70.93
54144;BME280;40050;47.324;18.792;2023-02-19T08:05:35;1004.99;;;10.34;70.91
54144;BME280;40050;47.324;18.792;2023-02-19T08:07:38;1005.03;;;10.35;71.18
54144;BME280;40050;47.324;18.792;2023-02-19T08:09:40;1004.98;;;10.37;71.48
54144;BME280;40050;47.324;18.792;2023-02-19T08:11:42;1004.97;;;10.35;71.98
54144;BME280;40050;47.324;18.792;2023-02-19T08:13:46;1005.01;;;10.31;72.38
54144;BME280;40050;47.324;18.792;2023-02-19T08:15:49;1005.07;;;10.36;72.88
54144;BME280;40050;47.324;18.792;2023-02-19T08:17:52;1005.11;;;10.36;73.07
54144;BME280;40050;47.324;18.792;2023-02-19T08:19:54;1005.09;;;10.36;72.90
54144;BME280;40050;47.324;18.792;2023-02-19T08:21:57;1005.05;;;10.39;73.40
54144;BME280;40050;47.324;18.792;2023-02-19T08:23:59;1005.03;;;10.36;73.48
54144;BME280;40050;47.324;18.792;2023-02-19T08:26:01;1004.59;;;10.14;73.83
54144;BME280;40050;47.324;18.792;2023-02-19T08:28:04;1004.95;;;10.32;74.66
54144;BME280;40050;47.324;18.792;2023-02-19T08:30:07;1004.89;;;10.27;76.14
54144;BME280;40050;47.324;18.792;2023-02-19T08:32:09;1004.85;;;10.28;75.75
54144;BME280;40050;47.324;18.792;2023-02-19T08:34:12;1004.86;;;10.18;76.14
54144;BME280;40050;47.324;18.792;2023-02-19T08:36:14;1004.77;;;10.15;76.23
54144;BME280;40050;47.324;18.792;2023-02-19T08:38:17;1004.75;;;10.24;75.64
54144;BME280;40050;47.324;18.792;2023-02-19T08:40:19;1004.75;;;10.25;75.73
54144;BME280;40050;47.324;18.792;2023-02-19T08:42:21;1004.72;;;10.27;75.66
54144;BME280;40050;47.324;18.792;2023-02-19T08:44:24;1004.75;;;10.29;75.90
54144;BME280;40050;47.324;18.792;2023-02-19T08:46:26;1004.64;;;10.33;75.51
54144;BME280;40050;47.324;18.792;2023-02-19T08:48:30;1004.59;;;10.36;75.75
54144;BME280;40050;47.324;18.792;2023-02-19T08:50:33;1004.69;;;10.36;75.68
54144;BME280;40050;47.324;18.792;2023-02-19T08:52:36;1004.81;;;10.40;75.44
54144;BME280;40050;47.324;18.792;2023-02-19T08:54:39;1004.77;;;10.36;75.73
54144;BME280;40050;47.324;18.792;2023-02-19T08:56:45;1004.75;;;10.35;75.61
54144;BME280;40050;47.324;18.792;2023-02-19T08:58:48;1004.63;;;10.36;75.39
54144;BME280;40050;47.324;18.792;2023-02-19T09:00:52;1004.60;;;10.38;75.45
54144;BME280;40050;47.324;18.792;2023-02-19T09:02:56;1004.59;;;10.40;75.35
54144;BME280;40050;47.324;18.792;2023-02-19T09:04:58;1004.63;;;10.44;75.48
54144;BME280;40050;47.324;18.792;2023-02-19T09:07:01;1004.70;;;10.50;75.16
54144;BME280;40050;47.324;18.792;2023-02-19T09:09:06;1004.72;;;10.51;75.03
54144;BME280;40050;47.324;18.792;2023-02-19T09:11:09;1004.79;;;10.53;75.09
54144;BME280;40050;47.324;18.792;2023-02-19T09:13:15;1004.83;;;10.53;74.99
54144;BME280;40050;47.324;18.792;2023-02-19T09:15:17;1004.86;;;10.57;75.06
54144;BME280;40050;47.324;18.792;2023-02-19T09:17:20;1004.82;;;10.52;75.03
54144;BME280;40050;47.324;18.792;2023-02-19T09:19:22;1004.77;;;10.54;75.30
54144;BME280;40050;47.324;18.792;2023-02-19T09:21:25;1004.66;;;10.49;75.44
54144;BME280;40050;47.324;18.792;2023-02-19T09:23:27;1004.62;;;10.45;76.00
54144;BME280;40050;47.324;18.792;2023-02-19T09:25:30;1004.61;;;10.47;75.84
54144;BME280;40050;47.324;18.792;2023-02-19T09:27:32;1004.71;;;10.53;75.96
54144;BME280;40050;47.324;18.792;2023-02-19T09:29:35;1004.74;;;10.59;75.76
54144;BME280;40050;47.324;18.792;2023-02-19T09:31:37;1004.64;;;10.53;75.95
54144;BME280;40050;47.324;18.792;2023-02-19T09:33:43;1004.81;;;10.59;76.10
54144;BME280;40050;47.324;18.792;2023-02-19T09:35:46;1004.77;;;10.65;76.14
54144;BME280;40050;47.324;18.792;2023-02-19T09:37:48;1004.73;;;10.69;76.38
54144;BME280;40050;47.324;18.792;2023-02-19T09:39:51;1004.78;;;10.70;76.21
54144;BME280;40050;47.324;18.792;2023-02-19T09:41:57;1004.80;;;10.75;76.29
54144;BME280;40050;47.324;18.792;2023-02-19T09:44:01;1004.83;;;10.81;77.06
54144;BME280;40050;47.324;18.792;2023-02-19T09:46:39;1004.75;;;10.83;76.92
54144;BME280;40050;47.324;18.792;2023-02-19T09:48:31;1004.61;;;10.86;77.05
54144;BME280;40050;47.324;18.792;2023-02-19T09:50:35;1004.66;;;10.85;77.32
54144;BME280;40050;47.324;18.792;2023-02-19T09:52:44;1004.70;;;10.85;78.12
54144;BME280;40050;47.324;18.792;2023-02-19T09:54:48;1004.74;;;10.93;77.94
54144;BME280;40050;47.324;18.792;2023-02-19T09:56:51;1004.56;;;10.88;78.01
54144;BME280;40050;47.324;18.792;2023-02-19T09:58:55;1004.35;;;10.74;79.13
54144;BME280;40050;47.324;18.792;2023-02-19T10:01:00;1004.19;;;10.85;78.50
54144;BME280;40050;47.324;18.792;2023-02-19T10:03:04;1004.24;;;10.81;79.01
54144;BME280;40050;47.324;18.792;2023-02-19T10:05:14;1004.24;;;10.69;79.68
54144;BME280;40050;47.324;18.792;2023-02-19T10:07:21;1004.45;;;10.89;79.77
54144;BME280;40050;47.324;18.792;2023-02-19T10:09:25;1004.05;;;10.83;80.47
54144;BME280;40050;47.324;18.792;2023-02-19T10:11:30;1004.16;;;10.80;80.81
54144;BME280;40050;47.324;18.792;2023-02-19T10:13:33;1004.15;;;10.95;80.38
54144;BME280;40050;47.324;18.792;2023-02-19T10:15:37;1004.28;;;11.04;79.99
54144;BME280;40050;47.324;18.792;2023-02-19T10:17:41;1004.07;;;11.11;79.87
54144;BME280;40050;47.324;18.792;2023-02-19T10:19:47;1003.96;;;11.12;80.30
54144;BME280;40050;47.324;18.792;2023-02-19T10:21:51;1004.14;;;11.22;79.77
54144;BME280;40050;47.324;18.792;2023-02-19T10:23:54;1004.11;;;11.31;79.38
54144;BME280;40050;47.324;18.792;2023-02-19T10:25:57;1003.98;;;11.33;78.62
54144;BME280;40050;47.324;18.792;2023-02-19T10:28:01;1004.07;;;11.53;78.57
54144;BME280;40050;47.324;18.792;2023-02-19T10:30:03;1004.00;;;11.61;78.67
54144;BME280;40050;47.324;18.792;2023-02-19T10:32:14;1003.78;;;11.52;78.36
54144;BME280;40050;47.324;18.792;2023-02-19T10:34:20;1003.94;;;11.78;78.15
54144;BME280;40050;47.324;18.792;2023-02-19T10:36:27;1003.98;;;11.78;77.31
54144;BME280;40050;47.324;18.792;2023-02-19T10:38:38;1003.98;;;11.81;77.40
54144;BME280;40050;47.324;18.792;2023-02-19T10:40:42;1003.99;;;11.87;77.30
54144;BME280;40050;47.324;18.792;2023-02-19T10:42:46;1003.98;;;11.97;77.29
54144;BME280;40050;47.324;18.792;2023-02-19T10:44:53;1003.95;;;12.07;77.21
54144;BME280;40050;47.324;18.792;2023-02-19T10:46:57;1003.81;;;12.15;77.08
54144;BME280;40050;47.324;18.792;2023-02-19T10:49:01;1003.69;;;12.33;77.10
54144;BME280;40050;47.324;18.792;2023-02-19T10:51:06;1003.66;;;12.49;76.00
54144;BME280;40050;47.324;18.792;2023-02-19T10:53:18;1003.61;;;12.66;76.37
54144;BME280;40050;47.324;18.792;2023-02-19T10:55:26;1003.66;;;12.89;75.74
54144;BME280;40050;47.324;18.792;2023-02-19T10:57:29;1003.59;;;13.10;75.24
54144;BME280;40050;47.324;18.792;2023-02-19T10:59:31;1003.61;;;13.31;72.79
54144;BME280;40050;47.324;18.792;2023-02-19T11:01:33;1003.58;;;13.47;72.50
54144;BME280;40050;47.324;18.792;2023-02-19T11:03:39;1003.61;;;13.67;70.94
54144;BME280;40050;47.324;18.792;2023-02-19T11:06:00;1003.49;;;13.86;71.59